Cooks, MI (49817)

2:46 PM EDT on September 01, 2014 (GMT -0400)
On the Tip of Big Bay de Noc | Change Station
CLOSE
Current Station
Personal Weather Station
Location: Garden Corners, MI
Elevation: 587 ft
Nearby Weather Stations

Elev 587 ft 45.90 °N, 86.55 °W | Updated 11 seconds ago

Mostly Cloudy
Mostly Cloudy
70.2 °F
Feels Like 70.2 °F
N
9.0
Wind Variable Wind from SW
Gusts 14.0 mph

Today
High -- | Low -- °F
--% Chance of Precip.
Yesterday
High -- | Low -- °F
Precip. -- in
7:06 AM 8:24 PM
Waxing Crescent, 43% visible
Pressure 29.60 in
Visibility 10.0 miles
Clouds Scattered Clouds 1200 ft
Dew Point 68 °F
Humidity 94%
Rainfall 0.02 in
Snow Depth Not available.
UV 6 out of 12
Pollen 7.30 out of 12
Ozone Good
PM2.5 Moderate
Flu Activity Not available.
METAR KISQ 011834Z AUTO 19005KT 10SM SCT012 21/20 A2960 RMK AO2 T02050195

More Conditions Fewer Conditions

Pressure 29.60 in
Visibility 10.0 miles
Clouds Scattered Clouds 1200 ft
Dew Point 68 °F
Humidity 94%
Rainfall 0.02 in
Snow Depth Not available.
UV 6 out of 12
Pollen 7.30 out of 12
Ozone Good
PM2.5 Moderate
Flu Activity Not available.
METAR KISQ 011834Z AUTO 19005KT 10SM SCT012 21/20 A2960 RMK AO2 T02050195

More Conditions Fewer Conditions

10-Day Weather Forecast

Almanac

Astronomy

Sep. 01, 2014 Rise Set
Actual Time 7:06 AM EDT 8:24 PM EDT
Civil Twilight 6:36 AM EDT 8:55 PM EDT
Nautical Twilight 5:58 AM EDT 9:32 PM EDT
Astronomical Twilight 5:19 AM EDT 10:11 PM EDT
Moon 2:13 PM EDT No Moon Set
Length of Visible Light 14h 18m
Length of Day
13h 17m
Tomorrow will be 3m 7s shorter.
Waxing Crescent, 43% of the Moon is Illuminated
Today
Waxing Crescent
Sep 2
First Quarter
Sep 8
Full
Sep 15
Last Quarter
Sep 24
New

Today's Extremes

State Highs State Lows

Community

WunderPhotos

Upload Photos

1,749,359 photos uploaded!

Nearby

Air Quality

  Air Quality AQ Index Pollutant
Yesterday Good
OZONE
Yesterday Good
PM2.5
Current Moderate
PM2.5
Current Good
OZONE
Monday Good
OZONE
Monday Good
PM2.5
Tuesday Good
OZONE
Tuesday Good
PM2.5

Snow Depth

Station Depth Elevation
No new snow has been reported.

Earthquake Activity

City Distance Mag. Time & Date
No recent earthquake activity has been reported nearby.
Minimum magnitude displayed is 2.5.

Coastal Water Temperatures

Place Temperature
Menominee, MI 71.1 °F
Port Inland, MI 66.0 °F

Nearby Weather Stations